Time,TemperatureF,DewpointF,PressureIn,WindDirection,WindDirectionDegrees,WindSpeedMPH,WindSpeedGustMPH,Humidity,HourlyPrecipIn,Conditions,Clouds,dailyrainin,SoftwareType,DateUTC
2013-02-03 00:02:00,18.0,-99.9,-100.00,SSE,160,2.0,3.0,-999,0.00,,,0.00,,2013-02-03 06:02:00,
2013-02-03 00:11:00,18.0,-99.9,-100.00,SSE,160,2.0,3.0,-999,0.00,,,0.00,,2013-02-03 06:11:00,
2013-02-03 00:22:00,18.0,-99.9,-100.00,SSE,160,2.0,3.0,-999,0.00,,,0.00,,2013-02-03 06:22:00,
2013-02-03 00:32:00,17.0,-99.9,-100.00,SE,146,3.0,3.0,-999,0.00,,,0.00,,2013-02-03 06:32:00,
2013-02-03 00:42:00,17.0,-99.9,-100.00,SE,146,3.0,3.0,-999,0.00,,,0.00,,2013-02-03 06:42:00,
2013-02-03 00:52:00,17.0,-99.9,-100.00,SE,146,3.0,3.0,-999,0.00,,,0.00,,2013-02-03 06:52:00,
2013-02-03 01:02:00,18.0,-99.9,-100.00,SSE,154,4.0,6.0,-999,0.00,,,0.00,,2013-02-03 07:02:00,
2013-02-03 01:11:00,18.0,-99.9,-100.00,SSE,154,4.0,6.0,-999,0.00,,,0.00,,2013-02-03 07:11:00,
2013-02-03 01:22:00,18.0,-99.9,-100.00,SSE,154,4.0,6.0,-999,0.00,,,0.00,,2013-02-03 07:22:00,
2013-02-03 01:30:00,18.0,-99.9,-100.00,SSE,158,4.0,5.0,-999,0.00,,,0.00,,2013-02-03 07:30:00,
2013-02-03 01:32:00,18.0,-99.9,-100.00,SSE,147,4.0,4.0,-999,0.00,,,0.00,,2013-02-03 07:32:00,
2013-02-03 01:42:00,18.0,-99.9,-100.00,SSE,147,4.0,4.0,-999,0.00,,,0.00,,2013-02-03 07:42:00,
2013-02-03 01:53:00,18.0,-99.9,-100.00,SSE,147,4.0,4.0,-999,0.00,,,0.00,,2013-02-03 07:53:00,
2013-02-03 02:02:00,18.0,-99.9,-100.00,SSE,158,4.0,5.0,-999,0.00,,,0.00,,2013-02-03 08:02:00,
2013-02-03 02:11:00,18.0,-99.9,-100.00,SSE,158,4.0,5.0,-999,0.00,,,0.00,,2013-02-03 08:11:00,
2013-02-03 02:22:00,18.0,-99.9,-100.00,SSE,158,4.0,5.0,-999,0.00,,,0.00,,2013-02-03 08:22:00,
2013-02-03 03:03:00,18.0,-99.9,-100.00,South,187,5.0,7.0,-999,0.00,,,0.00,,2013-02-03 09:03:00,
2013-02-03 03:11:00,18.0,-99.9,-100.00,South,187,5.0,7.0,-999,0.00,,,0.00,,2013-02-03 09:11:00,
2013-02-03 03:22:00,18.0,-99.9,-100.00,South,187,5.0,7.0,-999,0.00,,,0.00,,2013-02-03 09:22:00,
2013-02-03 03:32:00,18.0,-99.9,-100.00,South,187,5.0,5.0,-999,0.00,,,0.00,,2013-02-03 09:32:00,
2013-02-03 03:42:00,18.0,-99.9,-100.00,South,187,5.0,5.0,-999,0.00,,,0.00,,2013-02-03 09:42:00,
2013-02-03 03:52:00,18.0,-99.9,-100.00,South,187,5.0,5.0,-999,0.00,,,0.00,,2013-02-03 09:52:00,
2013-02-03 04:02:00,19.0,-99.9,-100.00,SSW,193,4.0,6.0,-999,0.00,,,0.00,,2013-02-03 10:02:00,
2013-02-03 04:11:00,19.0,-99.9,-100.00,SSW,193,4.0,6.0,-999,0.00,,,0.00,,2013-02-03 10:11:00,
2013-02-03 04:22:00,19.0,-99.9,-100.00,SSW,193,4.0,6.0,-999,0.00,,,0.00,,2013-02-03 10:22:00,
2013-02-03 04:32:00,20.0,-99.9,-100.00,SW,217,2.0,3.0,-999,0.00,,,0.00,,2013-02-03 10:32:00,
2013-02-03 04:42:00,20.0,-99.9,-100.00,SW,217,2.0,3.0,-999,0.00,,,0.00,,2013-02-03 10:42:00,
2013-02-03 04:53:00,20.0,-99.9,-100.00,SW,217,2.0,3.0,-999,0.00,,,0.00,,2013-02-03 10:53:00,
2013-02-03 05:02:00,22.0,-99.9,-100.00,SW,231,5.0,8.0,-999,0.00,,,0.00,,2013-02-03 11:02:00,
2013-02-03 05:11:00,22.0,-99.9,-100.00,SW,231,5.0,8.0,-999,0.00,,,0.00,,2013-02-03 11:11:00,
2013-02-03 05:22:00,22.0,-99.9,-100.00,SW,231,5.0,8.0,-999,0.00,,,0.00,,2013-02-03 11:22:00,
2013-02-03 05:32:00,24.0,-99.9,-100.00,WNW,296,6.0,9.0,-999,0.00,,,0.00,,2013-02-03 11:32:00,
2013-02-03 05:42:00,24.0,-99.9,-100.00,WNW,296,6.0,9.0,-999,0.00,,,0.00,,2013-02-03 11:42:00,
2013-02-03 05:52:00,24.0,-99.9,-100.00,WNW,296,6.0,9.0,-999,0.00,,,0.00,,2013-02-03 11:52:00,
2013-02-03 06:03:00,24.0,-99.9,-100.00,WNW,290,6.0,12.0,-999,0.00,,,0.00,,2013-02-03 12:03:00,
2013-02-03 06:12:00,24.0,-99.9,-100.00,WNW,290,6.0,12.0,-999,0.00,,,0.00,,2013-02-03 12:12:00,
2013-02-03 06:22:00,24.0,-99.9,-100.00,WNW,290,6.0,12.0,-999,0.00,,,0.00,,2013-02-03 12:22:00,
2013-02-03 06:33:00,23.0,-99.9,-100.00,WNW,287,10.0,15.0,-999,0.00,,,0.00,,2013-02-03 12:33:00,
2013-02-03 06:42:00,23.0,-99.9,-100.00,WNW,287,10.0,15.0,-999,0.00,,,0.00,,2013-02-03 12:42:00,
2013-02-03 06:53:00,23.0,-99.9,-100.00,WNW,287,10.0,15.0,-999,0.00,,,0.00,,2013-02-03 12:53:00,
2013-02-03 07:04:00,22.0,-99.9,-100.00,West,278,9.0,16.0,-999,0.00,,,0.00,,2013-02-03 13:04:00,
2013-02-03 07:12:00,22.0,-99.9,-100.00,West,278,9.0,16.0,-999,0.00,,,0.00,,2013-02-03 13:12:00,
2013-02-03 07:22:00,22.0,-99.9,-100.00,West,278,9.0,16.0,-999,0.00,,,0.00,,2013-02-03 13:22:00,
2013-02-03 07:32:00,22.0,-99.9,-100.00,WNW,295,6.0,15.0,-999,0.00,,,0.00,,2013-02-03 13:32:00,
2013-02-03 07:42:00,22.0,-99.9,-100.00,WNW,295,6.0,15.0,-999,0.00,,,0.00,,2013-02-03 13:42:00,
2013-02-03 07:53:00,22.0,-99.9,-100.00,WNW,295,6.0,15.0,-999,0.00,,,0.00,,2013-02-03 13:53:00,
2013-02-03 08:00:00,20.0,-99.9,-100.00,WNW,289,8.0,17.0,-999,0.00,,,0.00,,2013-02-03 14:00:00,
2013-02-03 08:03:00,21.0,-99.9,-100.00,West,277,6.0,12.0,-999,0.00,,,0.00,,2013-02-03 14:03:00,
2013-02-03 08:12:00,21.0,-99.9,-100.00,West,277,6.0,12.0,-999,0.00,,,0.00,,2013-02-03 14:12:00,
2013-02-03 08:22:00,21.0,-99.9,-100.00,West,277,6.0,12.0,-999,0.00,,,0.00,,2013-02-03 14:22:00,
2013-02-03 08:32:00,20.0,-99.9,-100.00,WNW,289,8.0,17.0,-999,0.00,,,0.00,,2013-02-03 14:32:00,
2013-02-03 08:43:00,20.0,-99.9,-100.00,WNW,289,8.0,17.0,-999,0.00,,,0.00,,2013-02-03 14:43:00,
2013-02-03 08:52:00,20.0,-99.9,-100.00,WNW,289,8.0,17.0,-999,0.00,,,0.00,,2013-02-03 14:52:00,
2013-02-03 09:33:00,19.0,-99.9,-100.00,WNW,292,8.0,13.0,-999,0.00,,,0.00,,2013-02-03 15:33:00,
2013-02-03 09:42:00,19.0,-99.9,-100.00,WNW,292,8.0,13.0,-999,0.00,,,0.00,,2013-02-03 15:42:00,
2013-02-03 09:52:00,19.0,-99.9,-100.00,WNW,292,8.0,13.0,-999,0.00,,,0.00,,2013-02-03 15:52:00,
2013-02-03 10:03:00,19.0,-99.9,-100.00,West,280,8.0,14.0,-999,0.00,,,0.00,,2013-02-03 16:03:00,
2013-02-03 10:12:00,19.0,-99.9,-100.00,West,280,8.0,14.0,-999,0.00,,,0.00,,2013-02-03 16:12:00,
2013-02-03 10:22:00,19.0,-99.9,-100.00,West,280,8.0,14.0,-999,0.00,,,0.00,,2013-02-03 16:22:00,
2013-02-03 10:33:00,20.0,-99.9,-100.00,WNW,292,10.0,14.0,-999,0.00,,,0.00,,2013-02-03 16:33:00,
2013-02-03 10:42:00,20.0,-99.9,-100.00,WNW,292,10.0,14.0,-999,0.00,,,0.00,,2013-02-03 16:42:00,
2013-02-03 10:52:00,20.0,-99.9,-100.00,WNW,292,10.0,14.0,-999,0.00,,,0.00,,2013-02-03 16:52:00,
2013-02-03 11:03:00,21.0,-99.9,-100.00,West,272,6.0,12.0,-999,0.00,,,0.00,,2013-02-03 17:03:00,
2013-02-03 11:12:00,21.0,-99.9,-100.00,West,272,6.0,12.0,-999,0.00,,,0.00,,2013-02-03 17:12:00,
2013-02-03 11:22:00,21.0,-99.9,-100.00,West,272,6.0,12.0,-999,0.00,,,0.00,,2013-02-03 17:22:00,
2013-02-03 11:32:00,20.0,-99.9,-100.00,West,278,8.0,17.0,-999,0.00,,,0.00,,2013-02-03 17:32:00,
2013-02-03 11:42:00,20.0,-99.9,-100.00,West,278,8.0,17.0,-999,0.00,,,0.00,,2013-02-03 17:42:00,
2013-02-03 11:53:00,20.0,-99.9,-100.00,West,278,8.0,17.0,-999,0.00,,,0.00,,2013-02-03 17:53:00,
2013-02-03 12:03:00,22.0,-99.9,-100.00,WNW,285,5.0,10.0,-999,0.00,,,0.00,,2013-02-03 18:03:00,
2013-02-03 12:12:00,22.0,-99.9,-100.00,WNW,285,5.0,10.0,-999,0.00,,,0.00,,2013-02-03 18:12:00,
2013-02-03 12:23:00,22.0,-99.9,-100.00,WNW,285,5.0,10.0,-999,0.00,,,0.00,,2013-02-03 18:23:00,
2013-02-03 12:33:00,22.0,-99.9,-100.00,WSW,246,6.0,11.0,-999,0.00,,,0.00,,2013-02-03 18:33:00,
2013-02-03 12:42:00,22.0,-99.9,-100.00,WSW,246,6.0,11.0,-999,0.00,,,0.00,,2013-02-03 18:42:00,
2013-02-03 12:52:00,22.0,-99.9,-100.00,WSW,246,6.0,11.0,-999,0.00,,,0.00,,2013-02-03 18:52:00,
2013-02-03 13:03:00,24.0,-99.9,-100.00,WSW,243,5.0,10.0,-999,0.00,,,0.00,,2013-02-03 19:03:00,
2013-02-03 13:11:00,24.0,-99.9,-100.00,WSW,243,5.0,10.0,-999,0.00,,,0.00,,2013-02-03 19:11:00,
2013-02-03 13:22:00,24.0,-99.9,-100.00,WSW,243,5.0,10.0,-999,0.00,,,0.00,,2013-02-03 19:22:00,
2013-02-03 13:33:00,24.0,-99.9,-100.00,WSW,249,7.0,13.0,-999,0.00,,,0.00,,2013-02-03 19:33:00,
2013-02-03 13:42:00,24.0,-99.9,-100.00,WSW,249,7.0,13.0,-999,0.00,,,0.00,,2013-02-03 19:42:00,
2013-02-03 13:52:00,24.0,-99.9,-100.00,WSW,249,7.0,13.0,-999,0.00,,,0.00,,2013-02-03 19:52:00,
2013-02-03 14:02:00,24.0,-99.9,-100.00,WSW,240,7.0,12.0,-999,0.00,,,0.00,,2013-02-03 20:02:00,
2013-02-03 14:12:00,24.0,-99.9,-100.00,WSW,240,7.0,12.0,-999,0.00,,,0.00,,2013-02-03 20:12:00,
2013-02-03 14:22:00,24.0,-99.9,-100.00,WSW,240,7.0,12.0,-999,0.00,,,0.00,,2013-02-03 20:22:00,
2013-02-03 14:33:00,25.0,-99.9,-100.00,WSW,238,9.0,11.0,-999,0.00,,,0.00,,2013-02-03 20:33:00,
2013-02-03 14:42:00,25.0,-99.9,-100.00,WSW,238,9.0,11.0,-999,0.00,,,0.00,,2013-02-03 20:42:00,
2013-02-03 14:52:00,25.0,-99.9,-100.00,WSW,238,9.0,11.0,-999,0.00,,,0.00,,2013-02-03 20:52:00,
2013-02-03 15:04:00,25.0,-99.9,-100.00,WSW,247,10.0,13.0,-999,0.00,,,0.00,,2013-02-03 21:04:00,
2013-02-03 15:11:00,25.0,-99.9,-100.00,WSW,247,10.0,13.0,-999,0.00,,,0.00,,2013-02-03 21:11:00,
2013-02-03 15:22:00,25.0,-99.9,-100.00,WSW,247,10.0,13.0,-999,0.00,,,0.00,,2013-02-03 21:22:00,
2013-02-03 15:33:00,24.0,-99.9,-100.00,SW,220,7.0,10.0,-999,0.00,,,0.00,,2013-02-03 21:33:00,
2013-02-03 15:43:00,24.0,-99.9,-100.00,SW,220,7.0,10.0,-999,0.00,,,0.00,,2013-02-03 21:43:00,
2013-02-03 15:52:00,24.0,-99.9,-100.00,SW,220,7.0,10.0,-999,0.00,,,0.00,,2013-02-03 21:52:00,
2013-02-03 16:02:00,25.0,-99.9,-100.00,SW,233,6.0,9.0,-999,0.00,,,0.00,,2013-02-03 22:02:00,
2013-02-03 16:11:00,25.0,-99.9,-100.00,SW,233,6.0,9.0,-999,0.00,,,0.00,,2013-02-03 22:11:00,
2013-02-03 16:22:00,25.0,-99.9,-100.00,SW,233,6.0,9.0,-999,0.00,,,0.00,,2013-02-03 22:22:00,
2013-02-03 16:32:00,25.0,-99.9,-100.00,SW,221,4.0,5.0,-999,0.00,,,0.00,,2013-02-03 22:32:00,
2013-02-03 16:42:00,25.0,-99.9,-100.00,SW,221,4.0,5.0,-999,0.00,,,0.00,,2013-02-03 22:42:00,
2013-02-03 16:52:00,25.0,-99.9,-100.00,SW,221,4.0,5.0,-999,0.00,,,0.00,,2013-02-03 22:52:00,
2013-02-03 17:02:00,26.0,-99.9,-100.00,SW,225,4.0,6.0,-999,0.00,,,0.00,,2013-02-03 23:02:00,
2013-02-03 17:12:00,26.0,-99.9,-100.00,SW,225,4.0,6.0,-999,0.00,,,0.00,,2013-02-03 23:12:00,
2013-02-03 17:22:00,26.0,-99.9,-100.00,SW,225,4.0,6.0,-999,0.00,,,0.00,,2013-02-03 23:22:00,
2013-02-03 17:33:00,25.0,-99.9,-100.00,SW,218,3.0,4.0,-999,0.00,,,0.00,,2013-02-03 23:33:00,
2013-02-03 17:42:00,25.0,-99.9,-100.00,SW,218,3.0,4.0,-999,0.00,,,0.00,,2013-02-03 23:42:00,
2013-02-03 17:52:00,25.0,-99.9,-100.00,SW,218,3.0,4.0,-999,0.00,,,0.00,,2013-02-03 23:52:00,
2013-02-03 18:02:00,24.0,-99.9,-100.00,SW,221,2.0,3.0,-999,0.00,,,0.00,,2013-02-04 00:02:00,
2013-02-03 18:11:00,24.0,-99.9,-100.00,SW,221,2.0,3.0,-999,0.00,,,0.00,,2013-02-04 00:11:00,
2013-02-03 18:22:00,24.0,-99.9,-100.00,SW,221,2.0,3.0,-999,0.00,,,0.00,,2013-02-04 00:22:00,
2013-02-03 18:32:00,22.0,-99.9,-100.00,SSW,212,2.0,2.0,-999,0.00,,,0.00,,2013-02-04 00:32:00,
2013-02-03 18:42:00,22.0,-99.9,-100.00,SSW,212,2.0,2.0,-999,0.00,,,0.00,,2013-02-04 00:42:00,
2013-02-03 18:52:00,22.0,-99.9,-100.00,SSW,212,2.0,2.0,-999,0.00,,,0.00,,2013-02-04 00:52:00,
2013-02-03 19:01:00,22.0,-99.9,-100.00,SE,146,2.0,2.0,-999,0.00,,,0.00,,2013-02-04 01:01:00,
2013-02-03 19:11:00,22.0,-99.9,-100.00,SE,146,2.0,2.0,-999,0.00,,,0.00,,2013-02-04 01:11:00,
2013-02-03 19:22:00,22.0,-99.9,-100.00,SE,146,2.0,2.0,-999,0.00,,,0.00,,2013-02-04 01:22:00,
2013-02-03 19:30:00,22.0,-99.9,-100.00,East,86,3.0,4.0,-999,0.00,,,0.00,,2013-02-04 01:30:00,
2013-02-03 19:32:00,22.0,-99.9,-100.00,East,100,3.0,4.0,-999,0.00,,,0.00,,2013-02-04 01:32:00,
2013-02-03 19:42:00,22.0,-99.9,-100.00,East,100,3.0,4.0,-999,0.00,,,0.00,,2013-02-04 01:42:00,
2013-02-03 19:52:00,22.0,-99.9,-100.00,East,100,3.0,4.0,-999,0.00,,,0.00,,2013-02-04 01:52:00,
2013-02-03 20:02:00,22.0,-99.9,-100.00,East,86,3.0,4.0,-999,0.00,,,0.00,,2013-02-04 02:02:00,
2013-02-03 20:11:00,22.0,-99.9,-100.00,East,86,3.0,4.0,-999,0.00,,,0.00,,2013-02-04 02:11:00,
2013-02-03 20:22:00,22.0,-99.9,-100.00,East,86,3.0,4.0,-999,0.00,,,0.00,,2013-02-04 02:22:00,
2013-02-03 20:42:00,23.0,-99.9,-100.00,East,82,3.0,4.0,-999,0.00,,,0.00,,2013-02-04 02:42:00,
2013-02-03 20:52:00,23.0,-99.9,-100.00,East,82,3.0,4.0,-999,0.00,,,0.00,,2013-02-04 02:52:00,
2013-02-03 21:02:00,23.0,-99.9,-100.00,East,98,3.0,4.0,-999,0.00,,,0.00,,2013-02-04 03:02:00,
2013-02-03 21:11:00,23.0,-99.9,-100.00,East,98,3.0,4.0,-999,0.00,,,0.00,,2013-02-04 03:11:00,
2013-02-03 21:22:00,23.0,-99.9,-100.00,East,98,3.0,4.0,-999,0.00,,,0.00,,2013-02-04 03:22:00,
2013-02-03 21:32:00,23.0,-99.9,-100.00,East,100,4.0,5.0,-999,0.00,,,0.00,,2013-02-04 03:32:00,
2013-02-03 21:42:00,23.0,-99.9,-100.00,East,100,4.0,5.0,-999,0.00,,,0.00,,2013-02-04 03:42:00,
2013-02-03 21:52:00,23.0,-99.9,-100.00,East,100,4.0,5.0,-999,0.00,,,0.00,,2013-02-04 03:52:00,
2013-02-03 22:02:00,23.0,-99.9,-100.00,East,99,3.0,5.0,-999,0.00,,,0.00,,2013-02-04 04:02:00,
2013-02-03 22:11:00,23.0,-99.9,-100.00,East,99,3.0,5.0,-999,0.00,,,0.00,,2013-02-04 04:11:00,
2013-02-03 22:22:00,23.0,-99.9,-100.00,East,99,3.0,5.0,-999,0.00,,,0.00,,2013-02-04 04:22:00,
2013-02-03 22:32:00,23.0,-99.9,-100.00,East,83,4.0,5.0,-999,0.00,,,0.00,,2013-02-04 04:32:00,
2013-02-03 22:42:00,23.0,-99.9,-100.00,East,83,4.0,5.0,-999,0.00,,,0.00,,2013-02-04 04:42:00,
2013-02-03 22:52:00,23.0,-99.9,-100.00,East,83,4.0,5.0,-999,0.00,,,0.00,,2013-02-04 04:52:00,
2013-02-03 23:03:00,24.0,-99.9,-100.00,ENE,63,3.0,6.0,-999,0.00,,,0.00,,2013-02-04 05:03:00,
2013-02-03 23:12:00,24.0,-99.9,-100.00,ENE,63,3.0,6.0,-999,0.00,,,0.00,,2013-02-04 05:12:00,
2013-02-03 23:22:00,24.0,-99.9,-100.00,ENE,63,3.0,6.0,-999,0.00,,,0.00,,2013-02-04 05:22:00,
2013-02-03 23:33:00,23.0,-99.9,-100.00,East,87,2.0,3.0,-999,0.00,,,0.00,,2013-02-04 05:33:00,
2013-02-03 23:42:00,23.0,-99.9,-100.00,East,87,2.0,3.0,-999,0.00,,,0.00,,2013-02-04 05:42:00,
2013-02-03 23:52:00,23.0,-99.9,-100.00,East,87,2.0,3.0,-999,0.00,,,0.00,,2013-02-04 05:52:00,